createdAt,value
2019-04-06T09:22:50.004Z,28
2019-04-06T09:24:50.668Z,34
2019-04-06T09:26:50.314Z,32
2019-04-06T09:28:50.812Z,21
2019-04-06T09:30:50.182Z,26
2019-04-06T09:32:50.642Z,27
2019-04-06T09:34:50.119Z,23
2019-04-06T09:36:50.989Z,32
2019-04-06T09:38:50.271Z,32
2019-04-06T09:40:51.042Z,37
2019-04-06T09:42:50.424Z,20
2019-04-06T09:44:50.652Z,41
2019-04-06T09:46:50.383Z,19
2019-04-06T09:48:50.658Z,28
2019-04-06T09:50:49.925Z,26
2019-04-06T09:52:50.426Z,24
2019-04-06T09:54:50.903Z,22
2019-04-06T09:56:50.471Z,26
2019-04-06T09:58:50.636Z,28
2019-04-06T10:00:50.553Z,26
2019-04-06T10:02:50.512Z,26
2019-04-06T10:04:50.090Z,33
2019-04-06T10:06:50.445Z,24
2019-04-06T10:08:50.034Z,30
2019-04-06T10:10:50.851Z,24
2019-04-06T10:12:50.350Z,20
2019-04-06T10:14:50.216Z,32
2019-04-06T10:16:49.862Z,17
2019-04-06T10:18:50.452Z,36
2019-04-06T10:20:49.911Z,16
2019-04-06T10:22:50.131Z,27
2019-04-06T10:24:50.384Z,29
2019-04-06T10:26:50.640Z,19
2019-04-06T10:28:51.161Z,18
2019-04-06T10:30:50.455Z,37
2019-04-06T10:32:51.042Z,19
2019-04-06T10:34:50.498Z,21
2019-04-06T10:36:50.446Z,23
2019-04-06T10:38:49.949Z,25
2019-04-06T10:40:50.202Z,32
2019-04-06T10:42:50.692Z,29
2019-04-06T10:44:50.343Z,15
2019-04-06T10:46:49.818Z,29
2019-04-06T10:48:50.041Z,27
2019-04-06T10:50:50.609Z,25
2019-04-06T10:52:50.111Z,29
2019-04-06T10:54:50.395Z,30
2019-04-06T10:56:49.854Z,18
2019-04-06T10:58:50.033Z,28
2019-04-06T11:00:50.462Z,30
2019-04-06T11:02:50.016Z,28
2019-04-06T11:04:50.601Z,25
2019-04-06T11:06:50.184Z,23
2019-04-06T11:08:50.340Z,20
2019-04-06T11:10:50.347Z,22
2019-04-06T11:12:50.419Z,18
2019-04-06T11:14:50.447Z,38
2019-04-06T11:16:49.882Z,26
2019-04-06T11:18:50.768Z,32
2019-04-06T11:20:50.064Z,26
2019-04-06T11:22:50.099Z,27
2019-04-06T11:24:50.815Z,21
2019-04-06T11:26:50.274Z,24
2019-04-06T11:28:50.849Z,23
2019-04-06T11:30:50.480Z,22
2019-04-06T11:32:50.125Z,20
2019-04-06T11:34:50.906Z,31
2019-04-06T11:36:50.311Z,27
2019-04-06T11:38:49.692Z,23
2019-04-06T11:40:49.858Z,22
2019-04-06T11:42:50.152Z,26
2019-04-06T11:44:50.903Z,27
2019-04-06T11:46:50.529Z,22
2019-04-06T11:48:50.075Z,32
2019-04-06T11:50:50.727Z,28
2019-04-06T11:52:50.312Z,27
2019-04-06T11:54:50.238Z,19
2019-04-06T11:56:50.442Z,32
2019-04-06T11:58:50.569Z,27
2019-04-06T12:00:49.767Z,24
2019-04-06T12:02:50.450Z,26
2019-04-06T12:04:50.357Z,24
2019-04-06T12:06:50.475Z,33
2019-04-06T12:08:50.645Z,21
2019-04-06T12:10:50.173Z,36
2019-04-06T12:12:49.754Z,24
2019-04-06T12:14:50.679Z,26
2019-04-06T12:16:50.105Z,27
2019-04-06T12:18:50.581Z,26
2019-04-06T12:20:49.858Z,27
2019-04-06T12:22:51.545Z,20
2019-04-06T12:24:49.772Z,23
2019-04-06T12:26:50.724Z,24
2019-04-06T12:28:50.084Z,28
2019-04-06T12:30:50.554Z,33
2019-04-06T12:32:49.966Z,36
2019-04-06T12:34:50.190Z,29
2019-04-06T12:36:50.591Z,24
2019-04-06T12:38:49.881Z,21
2019-04-06T12:40:50.370Z,18
2019-04-06T12:42:50.937Z,22
2019-04-06T12:44:50.198Z,20
2019-04-06T12:46:49.972Z,28
2019-04-06T12:48:53.597Z,3
2019-04-06T12:50:49.928Z,0
2019-04-06T12:52:50.635Z,0
2019-04-06T12:54:50.113Z,0
2019-04-06T12:56:50.358Z,0
2019-04-06T12:58:50.006Z,0
2019-04-06T13:00:54.611Z,24
2019-04-06T13:02:49.874Z,1
2019-04-06T13:04:50.488Z,26
2019-04-06T13:06:50.357Z,26
2019-04-06T13:08:50.583Z,30
2019-04-06T13:10:49.981Z,29
2019-04-06T13:12:50.345Z,31
2019-04-06T13:14:50.299Z,23
2019-04-06T13:16:49.767Z,28
2019-04-06T13:18:50.914Z,36
2019-04-06T13:20:50.298Z,20
2019-04-06T13:22:50.696Z,0
2019-04-06T13:24:50.423Z,0
2019-04-06T13:26:49.848Z,0
2019-04-06T13:28:50.541Z,0
2019-04-06T13:31:05.037Z,0
2019-04-06T13:32:49.935Z,0
2019-04-06T13:34:50.461Z,31
2019-04-06T13:36:50.096Z,28
2019-04-06T13:38:50.387Z,22
2019-04-06T13:40:50.660Z,19
2019-04-06T13:42:49.813Z,30
2019-04-06T13:44:50.088Z,0
2019-04-06T13:46:50.709Z,0
2019-04-06T13:48:50.316Z,0
2019-04-06T13:50:50.743Z,0
2019-04-06T13:52:50.450Z,0
2019-04-06T13:54:50.977Z,0
2019-04-06T13:56:50.317Z,0
2019-04-06T13:58:51.243Z,0
2019-04-06T14:00:49.904Z,0
2019-04-06T14:02:50.572Z,0
2019-04-06T14:04:50.432Z,0
2019-04-06T14:06:49.819Z,0
2019-04-06T14:08:50.105Z,0
2019-04-06T14:10:50.372Z,0
2019-04-06T14:12:50.678Z,0
2019-04-06T14:14:50.263Z,0
2019-04-06T14:16:49.796Z,0
2019-04-06T14:18:50.078Z,0
2019-04-06T14:20:50.327Z,0
2019-04-06T14:22:50.989Z,0
2019-04-06T14:24:50.928Z,0
2019-04-06T14:26:49.817Z,0
2019-04-06T14:28:50.438Z,0
2019-04-06T14:30:50.687Z,0
2019-04-06T14:32:49.956Z,0
2019-04-06T14:34:50.567Z,0
2019-04-06T14:36:50.032Z,0
2019-04-06T14:38:50.627Z,0
2019-04-06T14:40:50.336Z,0
2019-04-06T14:42:49.731Z,0
2019-04-06T14:44:50.718Z,0
2019-04-06T14:46:50.996Z,0
2019-04-06T14:48:50.292Z,0
2019-04-06T14:50:50.608Z,0
2019-04-06T14:52:49.959Z,0
2019-04-06T14:54:50.261Z,0
2019-04-06T14:56:49.894Z,0
2019-04-06T14:58:49.941Z,0
2019-04-06T15:00:51.087Z,0
2019-04-06T15:02:49.818Z,0
2019-04-06T15:04:50.688Z,0
2019-04-06T15:06:50.800Z,0
2019-04-06T15:08:50.537Z,0
2019-04-06T15:10:50.158Z,23
2019-04-06T15:12:50.474Z,23
2019-04-06T15:14:50.778Z,29
2019-04-06T15:16:50.590Z,23
2019-04-06T15:18:50.541Z,20
2019-04-06T15:20:50.227Z,27
2019-04-06T15:22:50.297Z,30
2019-04-06T15:24:50.354Z,24
2019-04-06T15:26:50.209Z,27
2019-04-06T15:28:50.345Z,16
2019-04-06T15:30:50.719Z,25
2019-04-06T15:32:50.530Z,35
2019-04-06T15:34:51.177Z,35
2019-04-06T15:36:49.991Z,26
2019-04-06T15:38:50.254Z,30
2019-04-06T15:40:50.374Z,31
2019-04-06T15:42:50.942Z,30
2019-04-06T15:44:50.655Z,31
2019-04-06T15:46:50.707Z,18
2019-04-06T15:48:50.076Z,24
2019-04-06T15:50:50.365Z,24
2019-04-06T15:52:51.136Z,20
2019-04-06T15:54:50.407Z,28
2019-04-06T15:56:50.526Z,33
2019-04-06T15:58:49.817Z,26
2019-04-06T16:00:50.918Z,31
2019-04-06T16:02:50.139Z,34
2019-04-06T16:04:49.854Z,32
2019-04-06T16:06:50.689Z,32
